createdAt,value
2023-05-18T00:00:05.407Z,100976.69
2023-05-18T00:02:33.048Z,100973.25
2023-05-18T00:05:02.587Z,100975.19
2023-05-18T00:07:34.326Z,100975.34
2023-05-18T00:10:02.239Z,100972.81
2023-05-18T00:12:29.987Z,100974.75
2023-05-18T00:14:57.607Z,100979.25
2023-05-18T00:17:25.612Z,100983.78
2023-05-18T00:19:53.326Z,100975.97
2023-05-18T00:22:20.914Z,100981.34
2023-05-18T00:24:48.512Z,100974.41
2023-05-18T00:27:16.256Z,100982.56
2023-05-18T00:29:44.494Z,100978.31
2023-05-18T00:32:12.114Z,100978.47
2023-05-18T00:34:39.789Z,100980.31
2023-05-18T00:37:07.410Z,100980.38
2023-05-18T00:39:35.004Z,100986.59
2023-05-18T00:42:03.092Z,100989.25
2023-05-18T00:44:30.847Z,100985.72
2023-05-18T00:47:00.270Z,100988.47
2023-05-18T00:49:27.925Z,100985.09
2023-05-18T00:51:55.528Z,100983.44
2023-05-18T00:54:23.516Z,100986.22
2023-05-18T00:56:51.242Z,100970.56
2023-05-18T00:59:18.857Z,100983.03
2023-05-18T01:01:47.081Z,100980.59
2023-05-18T01:04:15.454Z,100983.44
2023-05-18T01:06:44.094Z,100978.47
2023-05-18T01:09:12.331Z,100979.59
2023-05-18T01:11:40.632Z,100985.06
2023-05-18T01:14:08.287Z,100989.72
2023-05-18T01:16:37.541Z,100984.59
2023-05-18T01:19:06.092Z,100987.31
2023-05-18T01:21:34.497Z,100979.47
2023-05-18T01:24:03.652Z,100983.91
2023-05-18T01:26:31.870Z,100979.50
2023-05-18T01:28:59.462Z,100981.13
2023-05-18T01:31:29.050Z,100978.47
2023-05-18T01:33:56.802Z,100981.91
2023-05-18T01:36:24.393Z,100980.13
2023-05-18T01:38:51.998Z,100977.53
2023-05-18T01:41:19.658Z,100982.16
2023-05-18T01:43:47.598Z,100984.88
2023-05-18T01:46:15.229Z,100986.72
2023-05-18T01:48:42.894Z,100990.38
2023-05-18T01:51:10.491Z,100984.25
2023-05-18T01:53:38.548Z,100996.69
2023-05-18T01:56:06.540Z,100993.25
2023-05-18T01:58:34.124Z,100985.38
2023-05-18T02:01:01.758Z,100985.38
2023-05-18T02:03:29.539Z,100987.19
2023-05-18T02:05:57.273Z,100984.66
2023-05-18T02:08:25.230Z,100989.09
2023-05-18T02:10:52.883Z,100982.94
2023-05-18T02:13:20.496Z,100987.44
2023-05-18T02:15:48.643Z,100994.63
2023-05-18T02:18:16.740Z,100991.34
2023-05-18T02:20:44.655Z,100992.53
2023-05-18T02:23:12.337Z,100989.28
2023-05-18T02:25:40.076Z,100988.59
2023-05-18T02:28:07.721Z,100992.34
2023-05-18T02:30:35.407Z,100991.72
2023-05-18T02:33:04.931Z,100998.06
2023-05-18T02:35:32.807Z,100997.44
2023-05-18T02:38:00.644Z,100995.00
2023-05-18T02:40:28.285Z,100989.97
2023-05-18T02:42:55.930Z,100993.66
2023-05-18T02:45:23.769Z,100986.81
2023-05-18T02:47:51.536Z,100997.53
2023-05-18T02:50:19.192Z,100996.88
2023-05-18T02:52:49.333Z,101003.16
2023-05-18T02:55:17.464Z,100996.19
2023-05-18T02:57:47.375Z,100998.06
2023-05-18T03:00:16.901Z,100995.56
2023-05-18T03:02:48.635Z,101003.56
2023-05-18T03:05:16.753Z,101001.97
2023-05-18T03:07:51.167Z,101006.56
2023-05-18T03:10:18.788Z,101008.41
2023-05-18T03:12:46.414Z,101006.78
2023-05-18T03:15:16.364Z,101012.19
2023-05-18T03:17:44.048Z,101000.88
2023-05-18T03:20:12.276Z,101003.56
2023-05-18T03:22:39.904Z,101003.59
2023-05-18T03:25:07.493Z,101010.56
2023-05-18T03:27:35.094Z,101007.00
2023-05-18T03:30:02.738Z,101008.72
2023-05-18T03:32:32.113Z,101012.25
2023-05-18T03:35:01.196Z,101000.00
2023-05-18T03:37:28.884Z,101011.50
2023-05-18T03:39:56.803Z,101016.88
2023-05-18T03:42:25.856Z,101006.38
2023-05-18T03:44:53.884Z,101017.88
2023-05-18T03:47:22.304Z,101020.50
2023-05-18T03:49:49.974Z,101005.63
2023-05-18T03:52:22.283Z,101023.16
2023-05-18T03:54:50.270Z,101023.16
2023-05-18T03:57:17.869Z,101023.09
2023-05-18T03:59:45.736Z,101022.19
2023-05-18T04:02:13.426Z,101019.50
2023-05-18T04:04:42.137Z,101013.34
2023-05-18T04:07:09.755Z,101028.31
2023-05-18T04:09:37.678Z,101024.78
2023-05-18T04:12:05.464Z,101028.19
2023-05-18T04:14:34.254Z,101022.81
2023-05-18T04:17:05.100Z,101026.16
2023-05-18T04:19:33.095Z,101018.81
2023-05-18T04:22:01.284Z,101015.97
2023-05-18T04:24:32.677Z,101020.88
2023-05-18T04:27:01.006Z,101025.00
2023-05-18T04:29:29.326Z,101029.97
2023-05-18T04:32:00.129Z,101025.31
2023-05-18T04:34:27.861Z,101022.34
2023-05-18T04:36:56.146Z,101024.72
2023-05-18T04:39:23.730Z,101028.75
2023-05-18T04:41:58.277Z,101024.94
2023-05-18T04:44:26.033Z,101022.88
2023-05-18T04:46:54.369Z,101030.34
2023-05-18T04:49:23.349Z,101019.50
2023-05-18T04:51:55.763Z,101029.69
2023-05-18T04:54:23.438Z,101023.97
2023-05-18T04:56:51.194Z,101025.34
2023-05-18T04:59:19.199Z,101023.97
2023-05-18T05:01:47.188Z,101027.03
2023-05-18T05:04:15.079Z,101021.91
2023-05-18T05:06:42.750Z,101017.56
2023-05-18T05:09:10.380Z,101022.00
2023-05-18T05:11:38.086Z,101020.03
2023-05-18T05:14:05.883Z,101022.81
2023-05-18T05:16:33.510Z,101024.75
2023-05-18T05:19:01.333Z,101019.75
2023-05-18T05:21:29.028Z,101020.88
2023-05-18T05:23:57.057Z,101020.28
2023-05-18T05:26:24.846Z,101032.00
2023-05-18T05:28:52.802Z,101025.31
2023-05-18T05:31:20.465Z,101025.00
2023-05-18T05:33:48.159Z,101025.41
2023-05-18T05:36:16.179Z,101028.28
2023-05-18T05:38:43.823Z,101020.50
2023-05-18T05:41:11.535Z,101026.13
2023-05-18T05:43:39.193Z,101029.84
2023-05-18T05:46:06.791Z,101022.19
2023-05-18T05:48:34.495Z,101033.97
2023-05-18T05:51:03.715Z,101028.09
2023-05-18T05:53:31.323Z,101025.91
2023-05-18T05:55:58.972Z,101023.44
2023-05-18T05:58:26.610Z,101032.59
2023-05-18T06:00:54.258Z,101024.75
2023-05-18T06:03:22.057Z,101015.84
2023-05-18T06:05:49.814Z,101024.91
2023-05-18T06:08:17.464Z,101020.63
2023-05-18T06:10:45.204Z,101011.84
2023-05-18T06:13:13.697Z,101017.41
2023-05-18T06:15:41.320Z,101021.41
2023-05-18T06:18:09.927Z,101020.13
2023-05-18T06:20:38.460Z,101021.47
2023-05-18T06:23:06.103Z,101024.44
2023-05-18T06:25:35.752Z,101021.91
2023-05-18T06:28:03.670Z,101036.25
2023-05-18T06:30:31.353Z,101026.94
2023-05-18T06:32:59.089Z,101027.13
2023-05-18T06:35:26.758Z,101028.31
2023-05-18T06:37:54.462Z,101032.25
2023-05-18T06:40:22.190Z,101036.84
2023-05-18T06:42:49.820Z,101034.41
2023-05-18T06:45:17.490Z,101039.97
2023-05-18T06:47:45.262Z,101043.69
2023-05-18T06:50:13.277Z,101043.88
2023-05-18T06:52:40.956Z,101046.50
2023-05-18T06:55:09.341Z,101037.91
2023-05-18T06:57:36.986Z,101036.44
2023-05-18T07:00:07.460Z,101038.63
2023-05-18T07:02:35.524Z,101039.84
2023-05-18T07:05:05.753Z,101048.09
2023-05-18T07:07:33.490Z,101043.13
2023-05-18T07:10:01.307Z,101041.44
2023-05-18T07:12:29.236Z,101045.97
2023-05-18T07:14:57.278Z,101036.69
2023-05-18T07:17:26.821Z,101046.75
2023-05-18T07:19:54.647Z,101049.47
2023-05-18T07:22:22.332Z,101032.69
2023-05-18T07:24:50.155Z,101038.38
2023-05-18T07:27:18.203Z,101033.34
2023-05-18T07:29:46.140Z,101032.72
2023-05-18T07:32:13.857Z,101030.34
2023-05-18T07:34:42.661Z,101029.06
2023-05-18T07:37:10.363Z,101026.69
2023-05-18T07:39:40.405Z,101021.88
2023-05-18T07:42:08.187Z,101030.94
2023-05-18T07:44:36.068Z,101028.59
2023-05-18T07:47:03.992Z,101027.44
2023-05-18T07:49:31.889Z,101021.75
2023-05-18T07:52:01.001Z,101028.81
2023-05-18T07:54:29.101Z,101025.91
2023-05-18T07:56:59.102Z,101021.09
2023-05-18T07:59:28.121Z,101027.81
2023-05-18T08:01:58.020Z,101017.63
2023-05-18T08:04:26.188Z,101016.94
2023-05-18T08:06:54.997Z,101023.66
2023-05-18T08:09:23.308Z,101022.50
2023-05-18T08:11:51.787Z,101016.69
2023-05-18T08:14:19.481Z,101013.22
2023-05-18T08:16:47.721Z,101017.00
2023-05-18T08:19:15.744Z,101016.78
2023-05-18T08:21:43.591Z,101014.75
2023-05-18T08:24:11.769Z,101011.59
2023-05-18T08:26:39.770Z,101004.69
2023-05-18T08:29:10.297Z,101009.34
2023-05-18T08:31:38.282Z,101002.31
2023-05-18T08:34:06.290Z,100997.94
2023-05-18T08:36:34.639Z,100997.38
2023-05-18T08:39:03.078Z,100994.59
2023-05-18T08:41:31.454Z,100988.66
2023-05-18T08:43:59.222Z,100995.09
2023-05-18T08:46:27.506Z,100996.31
2023-05-18T08:48:55.275Z,101005.34
2023-05-18T08:51:23.049Z,100994.75
2023-05-18T08:53:51.207Z,100991.47
2023-05-18T08:56:19.166Z,100998.28
2023-05-18T08:58:46.940Z,100994.38
2023-05-18T09:01:14.685Z,100989.38
2023-05-18T09:03:42.555Z,100994.13
2023-05-18T09:06:10.977Z,100990.44
2023-05-18T09:08:39.234Z,100977.84
2023-05-18T09:11:07.032Z,100980.91
2023-05-18T09:13:34.809Z,100979.19
2023-05-18T09:16:02.720Z,100978.03
2023-05-18T09:18:30.860Z,100984.22
2023-05-18T09:20:58.881Z,100981.50
2023-05-18T09:23:26.830Z,100981.09
2023-05-18T09:25:54.573Z,100973.84
2023-05-18T09:28:22.453Z,100970.50
2023-05-18T09:30:50.659Z,100975.66
2023-05-18T09:33:19.469Z,100975.13
2023-05-18T09:35:47.686Z,100977.63
2023-05-18T09:38:15.669Z,100962.66
2023-05-18T09:40:43.393Z,100973.69
2023-05-18T09:43:11.526Z,100970.69
2023-05-18T09:45:39.343Z,100971.78
2023-05-18T09:48:07.110Z,100974.00
2023-05-18T09:50:35.020Z,100968.34
2023-05-18T09:53:03.262Z,100965.91
2023-05-18T09:55:31.380Z,100966.56
2023-05-18T09:57:59.400Z,100965.31
2023-05-18T10:00:27.408Z,100959.16
2023-05-18T10:02:56.711Z,100959.41
2023-05-18T10:05:24.715Z,100964.03
2023-05-18T10:07:52.973Z,100958.78
2023-05-18T10:10:20.985Z,100947.81
2023-05-18T10:12:48.817Z,100947.72
2023-05-18T10:15:17.354Z,100940.72
2023-05-18T10:17:45.327Z,100942.47
2023-05-18T10:20:13.859Z,100947.19
2023-05-18T10:22:41.913Z,100937.66
2023-05-18T10:25:09.744Z,100936.00
2023-05-18T10:27:37.677Z,100929.94
2023-05-18T10:30:05.636Z,100933.34
2023-05-18T10:32:33.925Z,100926.22
2023-05-18T10:35:01.835Z,100926.00
2023-05-18T10:37:31.084Z,100926.66
2023-05-18T10:39:58.820Z,100924.00
2023-05-18T10:42:26.669Z,100931.03
2023-05-18T10:44:54.944Z,100926.38
2023-05-18T10:47:23.061Z,100917.94
2023-05-18T10:49:50.869Z,100914.38
2023-05-18T10:52:18.792Z,100916.69
2023-05-18T10:54:46.604Z,100923.66
2023-05-18T10:57:15.107Z,100933.66
2023-05-18T10:59:46.703Z,100928.50
2023-05-18T11:02:16.224Z,100914.38
2023-05-18T11:04:44.168Z,100914.41
2023-05-18T11:07:12.299Z,100909.59
2023-05-18T11:09:40.562Z,100908.69
2023-05-18T11:12:09.042Z,100906.72
2023-05-18T11:14:37.071Z,100910.22
2023-05-18T11:17:04.985Z,100900.56
2023-05-18T11:19:32.860Z,100900.16
2023-05-18T11:22:01.737Z,100891.06
2023-05-18T11:24:29.898Z,100889.09
2023-05-18T11:26:57.754Z,100891.69
2023-05-18T11:29:26.013Z,100888.44
2023-05-18T11:31:54.084Z,100890.44
2023-05-18T11:34:22.876Z,100893.50
2023-05-18T11:36:51.114Z,100887.84
2023-05-18T11:39:18.894Z,100891.25
2023-05-18T11:41:47.833Z,100888.56
2023-05-18T11:44:16.461Z,100878.44
2023-05-18T11:46:44.786Z,100876.75
2023-05-18T11:49:13.233Z,100878.28
2023-05-18T11:51:41.071Z,100877.38
2023-05-18T11:54:09.221Z,100881.66
2023-05-18T11:56:37.053Z,100888.31
2023-05-18T11:59:05.396Z,100881.00
2023-05-18T12:01:33.445Z,100874.91
2023-05-18T12:04:01.247Z,100872.03
2023-05-18T12:06:29.239Z,100872.81
2023-05-18T12:08:57.047Z,100867.31
2023-05-18T12:11:24.946Z,100869.13
2023-05-18T12:13:53.063Z,100869.31
2023-05-18T12:16:20.887Z,100863.06
2023-05-18T12:18:48.892Z,100860.16
2023-05-18T12:21:17.281Z,100855.97
2023-05-18T12:23:45.915Z,100855.34
2023-05-18T12:26:14.659Z,100849.28
2023-05-18T12:28:43.292Z,100853.50
2023-05-18T12:31:11.249Z,100864.22
2023-05-18T12:33:39.182Z,100863.25
2023-05-18T12:36:07.465Z,100856.72
2023-05-18T12:38:36.289Z,100860.50
2023-05-18T12:41:04.037Z,100855.81
2023-05-18T12:43:31.953Z,100855.94
2023-05-18T12:45:59.860Z,100840.84
2023-05-18T12:48:27.913Z,100845.72
2023-05-18T12:50:56.841Z,100843.44
2023-05-18T12:53:25.056Z,100855.13
2023-05-18T12:55:52.947Z,100835.09
2023-05-18T12:58:21.290Z,100839.06
2023-05-18T13:00:49.517Z,100835.72
2023-05-18T13:03:17.937Z,100831.97
2023-05-18T13:05:46.322Z,100839.63
2023-05-18T13:08:14.221Z,100846.34
2023-05-18T13:10:41.976Z,100827.88
2023-05-18T13:13:10.688Z,100824.50
2023-05-18T13:15:38.857Z,100817.38
2023-05-18T13:18:06.814Z,100825.38
2023-05-18T13:20:36.532Z,100817.16
2023-05-18T13:23:04.865Z,100815.47
2023-05-18T13:25:33.602Z,100821.19
2023-05-18T13:28:01.755Z,100811.88
2023-05-18T13:30:29.804Z,100830.34
2023-05-18T13:32:57.813Z,100815.88
2023-05-18T13:35:25.835Z,100822.56
2023-05-18T13:37:53.654Z,100821.63
2023-05-18T13:40:21.656Z,100817.50
2023-05-18T13:42:49.592Z,100811.31
2023-05-18T13:45:17.599Z,100807.06
2023-05-18T13:47:50.877Z,100791.75
2023-05-18T13:50:19.483Z,100799.00
2023-05-18T13:52:48.085Z,100797.50
2023-05-18T13:55:16.710Z,100792.63
2023-05-18T13:57:44.557Z,100794.47
2023-05-18T14:00:13.671Z,100794.31
2023-05-18T14:02:41.760Z,100783.50
2023-05-18T14:05:10.559Z,100781.03
2023-05-18T14:07:38.457Z,100771.78
2023-05-18T14:10:06.538Z,100773.31
2023-05-18T14:12:34.453Z,100773.59
2023-05-18T14:15:02.926Z,100776.78
2023-05-18T14:17:32.850Z,100777.25
2023-05-18T14:20:00.850Z,100772.06
2023-05-18T14:22:30.709Z,100769.06
2023-05-18T14:24:58.679Z,100773.75
2023-05-18T14:27:26.844Z,100767.53
2023-05-18T14:29:54.680Z,100760.06
2023-05-18T14:32:22.789Z,100764.28
2023-05-18T14:34:52.193Z,100763.44
2023-05-18T14:37:20.058Z,100756.63
2023-05-18T14:39:49.085Z,100764.94
2023-05-18T14:42:16.870Z,100756.03
2023-05-18T14:44:44.779Z,100758.91
2023-05-18T14:47:12.814Z,100760.41
2023-05-18T14:49:40.711Z,100757.38
2023-05-18T14:52:08.999Z,100759.75
2023-05-18T14:54:37.054Z,100749.75
2023-05-18T14:57:04.964Z,100753.72
2023-05-18T14:59:32.997Z,100755.06
2023-05-18T15:02:01.196Z,100754.88
2023-05-18T15:04:29.099Z,100749.03
2023-05-18T15:06:56.937Z,100751.16
2023-05-18T15:09:26.719Z,100743.69
2023-05-18T15:11:54.744Z,100743.25
2023-05-18T15:14:22.520Z,100748.91
2023-05-18T15:16:50.737Z,100751.19
2023-05-18T15:19:19.422Z,100743.97
2023-05-18T15:21:47.455Z,100735.53
2023-05-18T15:24:15.731Z,100739.13
2023-05-18T15:26:43.606Z,100745.69
2023-05-18T15:29:11.848Z,100744.78
2023-05-18T15:31:40.286Z,100737.19
2023-05-18T15:34:08.161Z,100738.84
2023-05-18T15:36:36.631Z,100737.84
2023-05-18T15:39:05.248Z,100738.03
2023-05-18T15:41:34.986Z,100737.91
2023-05-18T15:44:02.972Z,100734.97
2023-05-18T15:46:33.351Z,100733.06
2023-05-18T15:49:01.188Z,100735.00
2023-05-18T15:51:29.189Z,100731.03
2023-05-18T15:53:57.593Z,100734.34
2023-05-18T15:56:25.975Z,100732.47
2023-05-18T15:58:53.843Z,100732.03
2023-05-18T16:01:21.868Z,100727.81
2023-05-18T16:03:49.807Z,100720.03
2023-05-18T16:06:17.935Z,100721.75
2023-05-18T16:08:48.206Z,100720.88
2023-05-18T16:11:16.036Z,100718.34
2023-05-18T16:13:43.783Z,100721.28
2023-05-18T16:16:14.377Z,100716.25
2023-05-18T16:18:42.555Z,100719.84
2023-05-18T16:21:10.826Z,100719.66
2023-05-18T16:23:38.682Z,100725.09
2023-05-18T16:26:06.542Z,100718.09
2023-05-18T16:28:34.268Z,100721.31
2023-05-18T16:31:04.391Z,100732.22
2023-05-18T16:33:32.327Z,100736.50
2023-05-18T16:36:00.194Z,100738.81
2023-05-18T16:38:28.111Z,100748.25
2023-05-18T16:40:55.871Z,100741.19
2023-05-18T16:43:24.582Z,100729.91
2023-05-18T16:45:52.480Z,100737.19
2023-05-18T16:48:20.247Z,100746.50
2023-05-18T16:50:48.106Z,100745.44
2023-05-18T16:53:16.435Z,100740.59
2023-05-18T16:55:44.665Z,100742.38
2023-05-18T16:58:12.967Z,100739.53
2023-05-18T17:00:40.804Z,100751.16
2023-05-18T17:03:08.684Z,100751.53
2023-05-18T17:05:36.651Z,100751.66
2023-05-18T17:08:04.835Z,100748.75
2023-05-18T17:10:35.670Z,100747.53
2023-05-18T17:13:03.545Z,100737.94
2023-05-18T17:15:32.062Z,100751.59
2023-05-18T17:17:59.994Z,100750.34
2023-05-18T17:20:28.764Z,100752.06
2023-05-18T17:22:57.724Z,100749.75
2023-05-18T17:25:26.756Z,100745.09
2023-05-18T17:27:54.522Z,100742.25
2023-05-18T17:30:22.507Z,100738.75
2023-05-18T17:32:51.548Z,100748.38
2023-05-18T17:35:19.504Z,100742.75
2023-05-18T17:37:49.063Z,100738.75
2023-05-18T17:40:16.904Z,100737.34
2023-05-18T17:42:44.707Z,100741.47
2023-05-18T17:45:12.975Z,100741.16
2023-05-18T17:47:41.953Z,100733.66
2023-05-18T17:50:09.991Z,100728.00
2023-05-18T17:52:37.904Z,100734.81
2023-05-18T17:55:05.597Z,100738.75
2023-05-18T17:57:34.326Z,100732.22
2023-05-18T18:00:05.614Z,100739.00
2023-05-18T18:02:33.524Z,100736.16
2023-05-18T18:05:01.289Z,100736.69
2023-05-18T18:07:29.326Z,100732.72
2023-05-18T18:09:57.852Z,100740.34
2023-05-18T18:12:25.838Z,100740.91
2023-05-18T18:14:53.750Z,100740.59
2023-05-18T18:17:21.584Z,100749.94
2023-05-18T18:19:49.511Z,100751.34
2023-05-18T18:22:17.943Z,100739.44
2023-05-18T18:24:45.800Z,100753.53
2023-05-18T18:27:13.841Z,100750.38
2023-05-18T18:29:41.796Z,100750.06
2023-05-18T18:32:10.123Z,100753.44
2023-05-18T18:34:38.303Z,100748.59
2023-05-18T18:37:06.480Z,100749.13
2023-05-18T18:39:35.416Z,100753.31
2023-05-18T18:42:03.361Z,100754.84
2023-05-18T18:44:31.826Z,100752.78
2023-05-18T18:47:00.052Z,100759.66
2023-05-18T18:49:27.984Z,100764.69
2023-05-18T18:51:59.060Z,100759.00
2023-05-18T18:54:27.658Z,100759.63
2023-05-18T18:56:56.820Z,100769.44
2023-05-18T18:59:25.006Z,100775.47
2023-05-18T19:01:53.011Z,100764.38
2023-05-18T19:04:21.092Z,100773.09
2023-05-18T19:06:49.536Z,100780.75
2023-05-18T19:09:20.181Z,100786.88
2023-05-18T19:11:48.442Z,100782.16
2023-05-18T19:14:16.846Z,100790.97
2023-05-18T19:16:44.734Z,100789.00
2023-05-18T19:19:15.102Z,100798.47
2023-05-18T19:21:44.615Z,100794.47
2023-05-18T19:24:13.040Z,100795.13
2023-05-18T19:26:40.865Z,100794.88
2023-05-18T19:29:11.148Z,100798.03
2023-05-18T19:31:39.043Z,100802.19
2023-05-18T19:34:07.005Z,100806.06
2023-05-18T19:36:36.723Z,100805.59
2023-05-18T19:39:06.223Z,100804.34
2023-05-18T19:41:34.094Z,100810.19
2023-05-18T19:44:04.460Z,100812.34
2023-05-18T19:46:32.560Z,100810.03
2023-05-18T19:49:01.501Z,100807.72
2023-05-18T19:51:30.783Z,100816.13
2023-05-18T19:53:58.669Z,100816.47
2023-05-18T19:56:26.794Z,100815.97
2023-05-18T19:58:56.672Z,100821.78
2023-05-18T20:01:25.513Z,100822.13
2023-05-18T20:03:56.528Z,100828.69
2023-05-18T20:06:24.639Z,100832.56
2023-05-18T20:08:52.452Z,100832.09
2023-05-18T20:11:21.522Z,100836.19
2023-05-18T20:13:50.056Z,100834.81
2023-05-18T20:16:18.765Z,100840.59
2023-05-18T20:18:46.921Z,100846.41
2023-05-18T20:21:14.931Z,100845.88
2023-05-18T20:23:45.476Z,100847.28
2023-05-18T20:26:13.947Z,100843.25
2023-05-18T20:28:42.395Z,100853.22
2023-05-18T20:31:11.878Z,100853.78
2023-05-18T20:33:39.788Z,100855.31
2023-05-18T20:36:09.185Z,100859.50
2023-05-18T20:38:39.301Z,100861.13
2023-05-18T20:41:08.281Z,100858.25
2023-05-18T20:43:37.850Z,100861.47
2023-05-18T20:46:06.191Z,100861.28
2023-05-18T20:48:36.064Z,100857.13
2023-05-18T20:51:04.233Z,100865.03
2023-05-18T20:53:32.126Z,100861.50
2023-05-18T20:56:01.597Z,100861.81
2023-05-18T20:58:29.597Z,100863.22
2023-05-18T21:00:57.523Z,100864.50
2023-05-18T21:03:25.943Z,100867.81
2023-05-18T21:05:54.064Z,100871.00
2023-05-18T21:08:21.971Z,100870.69
2023-05-18T21:10:49.945Z,100863.19
2023-05-18T21:13:17.926Z,100868.28
2023-05-18T21:15:46.580Z,100863.69
2023-05-18T21:18:14.576Z,100873.28
2023-05-18T21:20:42.534Z,100876.66
2023-05-18T21:23:10.345Z,100873.84
2023-05-18T21:25:38.324Z,100879.78
2023-05-18T21:28:06.502Z,100871.44
2023-05-18T21:30:34.602Z,100890.59
2023-05-18T21:33:02.948Z,100884.81
2023-05-18T21:35:30.950Z,100881.59
2023-05-18T21:37:58.784Z,100883.69
2023-05-18T21:40:27.026Z,100886.56
2023-05-18T21:42:56.312Z,100889.41
2023-05-18T21:45:25.051Z,100884.31
2023-05-18T21:47:52.976Z,100885.44
2023-05-18T21:50:20.876Z,100880.31
2023-05-18T21:52:49.127Z,100881.47
2023-05-18T21:55:17.166Z,100884.31
2023-05-18T21:57:44.876Z,100885.28
2023-05-18T22:00:14.006Z,100881.88
2023-05-18T22:02:41.958Z,100883.88
2023-05-18T22:05:10.137Z,100878.81
2023-05-18T22:07:38.339Z,100890.53
2023-05-18T22:10:06.434Z,100886.34
2023-05-18T22:12:34.501Z,100887.69
2023-05-18T22:15:02.289Z,100891.59
2023-05-18T22:17:30.702Z,100884.81
2023-05-18T22:19:58.449Z,100879.00
2023-05-18T22:22:30.637Z,100881.09
2023-05-18T22:24:58.470Z,100881.28
2023-05-18T22:27:26.179Z,100883.38
2023-05-18T22:29:54.245Z,100875.69
2023-05-18T22:32:22.205Z,100875.94
2023-05-18T22:34:50.077Z,100869.13
2023-05-18T22:37:17.747Z,100878.22
2023-05-18T22:39:45.529Z,100875.75
2023-05-18T22:42:13.238Z,100881.28
2023-05-18T22:44:42.269Z,100874.22
2023-05-18T22:47:10.248Z,100876.13
2023-05-18T22:49:37.947Z,100874.50
2023-05-18T22:52:05.648Z,100871.97
2023-05-18T22:54:33.724Z,100869.47
2023-05-18T22:57:01.564Z,100870.50
2023-05-18T22:59:29.544Z,100869.00
2023-05-18T23:01:57.326Z,100874.59
2023-05-18T23:04:24.981Z,100867.72
2023-05-18T23:06:53.069Z,100869.72
2023-05-18T23:09:21.402Z,100864.59
2023-05-18T23:11:51.660Z,100862.22
2023-05-18T23:14:20.165Z,100868.56
2023-05-18T23:16:49.456Z,100863.53
2023-05-18T23:19:20.256Z,100868.31
2023-05-18T23:21:48.264Z,100867.75
2023-05-18T23:24:16.055Z,100866.31
2023-05-18T23:26:43.780Z,100860.41
2023-05-18T23:29:11.920Z,100865.91
2023-05-18T23:31:39.981Z,100863.41
2023-05-18T23:34:07.649Z,100855.63
2023-05-18T23:36:36.362Z,100864.56
2023-05-18T23:39:04.068Z,100858.56
2023-05-18T23:41:31.780Z,100863.09
2023-05-18T23:43:59.838Z,100850.94
2023-05-18T23:46:27.736Z,100863.53
2023-05-18T23:48:55.344Z,100861.03
2023-05-18T23:51:23.362Z,100863.88
2023-05-18T23:53:50.999Z,100858.66
2023-05-18T23:56:19.117Z,100858.84
2023-05-18T23:58:47.013Z,100847.47
